sensor_id;sensor_type;location;lat;lon;timestamp;temperature;humidity
44223;DHT22;29895;48.804;9.386;2023-02-03T00:00:23;6.80;99.90
44223;DHT22;29895;48.804;9.386;2023-02-03T00:02:48;6.80;99.90
44223;DHT22;29895;48.804;9.386;2023-02-03T00:05:14;6.80;99.90
44223;DHT22;29895;48.804;9.386;2023-02-03T00:07:40;6.80;99.90
44223;DHT22;29895;48.804;9.386;2023-02-03T00:10:06;6.80;99.90
44223;DHT22;29895;48.804;9.386;2023-02-03T00:12:33;6.90;99.90
44223;DHT22;29895;48.804;9.386;2023-02-03T00:14:59;6.80;99.90
44223;DHT22;29895;48.804;9.386;2023-02-03T00:17:24;6.80;99.90
44223;DHT22;29895;48.804;9.386;2023-02-03T00:19:50;6.80;99.90
44223;DHT22;29895;48.804;9.386;2023-02-03T00:22:15;6.80;99.90
44223;DHT22;29895;48.804;9.386;2023-02-03T00:24:41;6.80;99.90
44223;DHT22;29895;48.804;9.386;2023-02-03T00:27:07;6.80;99.90
44223;DHT22;29895;48.804;9.386;2023-02-03T00:29:32;6.80;99.90
44223;DHT22;29895;48.804;9.386;2023-02-03T00:31:58;6.80;99.90
44223;DHT22;29895;48.804;9.386;2023-02-03T00:34:30;6.80;99.90
44223;DHT22;29895;48.804;9.386;2023-02-03T00:36:56;6.80;99.90
44223;DHT22;29895;48.804;9.386;2023-02-03T00:39:22;6.80;99.90
44223;DHT22;29895;48.804;9.386;2023-02-03T00:41:48;6.80;99.90
44223;DHT22;29895;48.804;9.386;2023-02-03T00:44:14;6.70;99.90
44223;DHT22;29895;48.804;9.386;2023-02-03T00:46:40;6.70;99.90
44223;DHT22;29895;48.804;9.386;2023-02-03T00:49:06;6.80;99.90
44223;DHT22;29895;48.804;9.386;2023-02-03T00:51:32;6.80;99.90
44223;DHT22;29895;48.804;9.386;2023-02-03T00:53:58;6.80;99.90
44223;DHT22;29895;48.804;9.386;2023-02-03T00:56:24;6.80;99.90
44223;DHT22;29895;48.804;9.386;2023-02-03T00:58:50;6.80;99.90
44223;DHT22;29895;48.804;9.386;2023-02-03T01:01:16;6.80;99.90
44223;DHT22;29895;48.804;9.386;2023-02-03T01:03:42;6.80;99.90
44223;DHT22;29895;48.804;9.386;2023-02-03T01:06:14;6.80;99.90
44223;DHT22;29895;48.804;9.386;2023-02-03T01:08:40;6.80;99.90
44223;DHT22;29895;48.804;9.386;2023-02-03T01:11:11;6.80;99.90
44223;DHT22;29895;48.804;9.386;2023-02-03T01:13:37;6.70;99.90
44223;DHT22;29895;48.804;9.386;2023-02-03T01:16:13;6.70;99.90
44223;DHT22;29895;48.804;9.386;2023-02-03T01:18:39;6.70;99.90
44223;DHT22;29895;48.804;9.386;2023-02-03T01:21:11;6.80;99.90
44223;DHT22;29895;48.804;9.386;2023-02-03T01:23:37;6.80;99.90
44223;DHT22;29895;48.804;9.386;2023-02-03T01:26:08;6.70;99.90
44223;DHT22;29895;48.804;9.386;2023-02-03T01:28:34;6.70;99.90
44223;DHT22;29895;48.804;9.386;2023-02-03T01:31:22;6.70;99.90
44223;DHT22;29895;48.804;9.386;2023-02-03T01:33:48;6.70;99.90
44223;DHT22;29895;48.804;9.386;2023-02-03T01:36:15;6.70;99.90
44223;DHT22;29895;48.804;9.386;2023-02-03T01:38:41;6.70;99.90
44223;DHT22;29895;48.804;9.386;2023-02-03T01:41:09;6.70;99.90
44223;DHT22;29895;48.804;9.386;2023-02-03T01:43:40;6.70;99.90
44223;DHT22;29895;48.804;9.386;2023-02-03T01:48:43;6.70;99.90
44223;DHT22;29895;48.804;9.386;2023-02-03T01:51:09;6.70;99.90
44223;DHT22;29895;48.804;9.386;2023-02-03T01:53:35;6.70;99.90
44223;DHT22;29895;48.804;9.386;2023-02-03T01:56:02;6.60;99.90
44223;DHT22;29895;48.804;9.386;2023-02-03T01:58:30;6.60;99.90
44223;DHT22;29895;48.804;9.386;2023-02-03T02:00:58;6.60;99.90
44223;DHT22;29895;48.804;9.386;2023-02-03T02:03:37;6.60;99.90
44223;DHT22;29895;48.804;9.386;2023-02-03T02:06:03;6.60;99.90
44223;DHT22;29895;48.804;9.386;2023-02-03T02:08:30;6.60;99.90
44223;DHT22;29895;48.804;9.386;2023-02-03T02:10:57;6.60;99.90
44223;DHT22;29895;48.804;9.386;2023-02-03T02:13:23;6.60;99.90
44223;DHT22;29895;48.804;9.386;2023-02-03T02:18:43;6.50;99.90
44223;DHT22;29895;48.804;9.386;2023-02-03T02:38:52;6.60;99.90
44223;DHT22;29895;48.804;9.386;2023-02-03T02:44:08;6.50;99.90
44223;DHT22;29895;48.804;9.386;2023-02-03T02:46:45;6.60;99.90
44223;DHT22;29895;48.804;9.386;2023-02-03T02:51:43;6.50;99.90
44223;DHT22;29895;48.804;9.386;2023-02-03T02:54:15;6.50;99.90
44223;DHT22;29895;48.804;9.386;2023-02-03T02:56:44;6.50;99.90
44223;DHT22;29895;48.804;9.386;2023-02-03T02:59:14;6.60;99.90
44223;DHT22;29895;48.804;9.386;2023-02-03T03:01:39;6.60;99.90
44223;DHT22;29895;48.804;9.386;2023-02-03T03:04:07;6.60;99.90
44223;DHT22;29895;48.804;9.386;2023-02-03T03:06:42;6.60;99.90
44223;DHT22;29895;48.804;9.386;2023-02-03T03:09:20;6.60;99.90
44223;DHT22;29895;48.804;9.386;2023-02-03T03:11:54;6.60;99.90
44223;DHT22;29895;48.804;9.386;2023-02-03T03:14:22;6.60;99.90
44223;DHT22;29895;48.804;9.386;2023-02-03T03:16:58;6.50;99.90
44223;DHT22;29895;48.804;9.386;2023-02-03T03:19:29;6.50;99.90
44223;DHT22;29895;48.804;9.386;2023-02-03T03:22:02;6.50;99.90
44223;DHT22;29895;48.804;9.386;2023-02-03T03:24:32;6.60;99.90
44223;DHT22;29895;48.804;9.386;2023-02-03T03:27:09;6.60;99.90
44223;DHT22;29895;48.804;9.386;2023-02-03T03:32:03;6.60;99.90
44223;DHT22;29895;48.804;9.386;2023-02-03T03:34:29;6.60;99.90
44223;DHT22;29895;48.804;9.386;2023-02-03T03:37:23;6.50;99.90
44223;DHT22;29895;48.804;9.386;2023-02-03T03:39:53;6.50;99.90
44223;DHT22;29895;48.804;9.386;2023-02-03T03:42:39;6.50;99.90
44223;DHT22;29895;48.804;9.386;2023-02-03T03:45:18;6.50;99.90
44223;DHT22;29895;48.804;9.386;2023-02-03T03:47:52;6.50;99.90
44223;DHT22;29895;48.804;9.386;2023-02-03T03:50:25;6.50;99.90
44223;DHT22;29895;48.804;9.386;2023-02-03T03:52:53;6.50;99.90
44223;DHT22;29895;48.804;9.386;2023-02-03T03:55:20;6.50;99.90
44223;DHT22;29895;48.804;9.386;2023-02-03T03:58:11;6.60;99.90
44223;DHT22;29895;48.804;9.386;2023-02-03T04:00:40;6.50;99.90
44223;DHT22;29895;48.804;9.386;2023-02-03T04:03:19;6.60;99.90
44223;DHT22;29895;48.804;9.386;2023-02-03T04:05:45;6.50;99.90
44223;DHT22;29895;48.804;9.386;2023-02-03T04:08:11;6.50;99.90
44223;DHT22;29895;48.804;9.386;2023-02-03T04:10:40;6.60;99.90
44223;DHT22;29895;48.804;9.386;2023-02-03T04:13:07;6.50;99.90
44223;DHT22;29895;48.804;9.386;2023-02-03T04:15:33;6.60;99.90
44223;DHT22;29895;48.804;9.386;2023-02-03T04:17:59;6.60;99.90
44223;DHT22;29895;48.804;9.386;2023-02-03T04:20:29;6.50;99.90
44223;DHT22;29895;48.804;9.386;2023-02-03T04:22:55;6.50;99.90
44223;DHT22;29895;48.804;9.386;2023-02-03T04:25:21;6.50;99.90
44223;DHT22;29895;48.804;9.386;2023-02-03T04:27:47;6.50;99.90
44223;DHT22;29895;48.804;9.386;2023-02-03T04:30:13;6.40;99.90
44223;DHT22;29895;48.804;9.386;2023-02-03T04:32:39;6.40;99.90
44223;DHT22;29895;48.804;9.386;2023-02-03T04:35:06;6.20;99.90
44223;DHT22;29895;48.804;9.386;2023-02-03T04:37:32;6.10;99.90
44223;DHT22;29895;48.804;9.386;2023-02-03T04:39:58;6.00;99.90
44223;DHT22;29895;48.804;9.386;2023-02-03T04:42:24;5.90;99.90
44223;DHT22;29895;48.804;9.386;2023-02-03T04:44:50;5.80;99.90
44223;DHT22;29895;48.804;9.386;2023-02-03T04:47:16;5.80;99.90
44223;DHT22;29895;48.804;9.386;2023-02-03T04:49:42;5.80;99.90
44223;DHT22;29895;48.804;9.386;2023-02-03T04:52:09;5.80;99.90
44223;DHT22;29895;48.804;9.386;2023-02-03T04:54:34;5.70;99.90
44223;DHT22;29895;48.804;9.386;2023-02-03T04:57:00;5.70;99.90
44223;DHT22;29895;48.804;9.386;2023-02-03T04:59:26;5.70;99.90
44223;DHT22;29895;48.804;9.386;2023-02-03T05:01:52;5.70;99.90
44223;DHT22;29895;48.804;9.386;2023-02-03T05:04:17;5.70;99.90
44223;DHT22;29895;48.804;9.386;2023-02-03T05:06:43;5.60;99.90
44223;DHT22;29895;48.804;9.386;2023-02-03T05:09:08;5.60;99.90
44223;DHT22;29895;48.804;9.386;2023-02-03T05:11:34;5.60;99.90
44223;DHT22;29895;48.804;9.386;2023-02-03T05:14:00;5.60;99.90
44223;DHT22;29895;48.804;9.386;2023-02-03T05:16:25;5.70;99.90
44223;DHT22;29895;48.804;9.386;2023-02-03T05:18:51;5.70;99.90
44223;DHT22;29895;48.804;9.386;2023-02-03T05:21:17;5.70;99.90
44223;DHT22;29895;48.804;9.386;2023-02-03T05:23:43;5.70;99.90
44223;DHT22;29895;48.804;9.386;2023-02-03T05:26:08;5.70;99.90
44223;DHT22;29895;48.804;9.386;2023-02-03T05:28:34;5.70;99.90
44223;DHT22;29895;48.804;9.386;2023-02-03T05:31:01;5.70;99.90
44223;DHT22;29895;48.804;9.386;2023-02-03T05:33:27;5.80;99.90
44223;DHT22;29895;48.804;9.386;2023-02-03T05:35:53;5.80;99.90
44223;DHT22;29895;48.804;9.386;2023-02-03T05:38:19;5.80;99.90
44223;DHT22;29895;48.804;9.386;2023-02-03T05:40:47;5.70;99.90
44223;DHT22;29895;48.804;9.386;2023-02-03T05:43:32;5.70;99.90
44223;DHT22;29895;48.804;9.386;2023-02-03T05:46:01;5.70;99.90
44223;DHT22;29895;48.804;9.386;2023-02-03T05:48:27;5.70;99.90
44223;DHT22;29895;48.804;9.386;2023-02-03T05:50:53;5.70;99.90
44223;DHT22;29895;48.804;9.386;2023-02-03T05:53:19;5.70;99.90
44223;DHT22;29895;48.804;9.386;2023-02-03T05:55:45;5.60;99.90
44223;DHT22;29895;48.804;9.386;2023-02-03T05:58:10;5.70;99.90
44223;DHT22;29895;48.804;9.386;2023-02-03T06:00:36;5.70;99.90
44223;DHT22;29895;48.804;9.386;2023-02-03T06:03:02;5.70;99.90
44223;DHT22;29895;48.804;9.386;2023-02-03T06:05:30;5.70;99.90
44223;DHT22;29895;48.804;9.386;2023-02-03T06:07:57;5.70;99.90
44223;DHT22;29895;48.804;9.386;2023-02-03T06:10:23;5.80;99.90
44223;DHT22;29895;48.804;9.386;2023-02-03T06:12:48;5.80;99.90
44223;DHT22;29895;48.804;9.386;2023-02-03T06:15:14;5.80;99.90
44223;DHT22;29895;48.804;9.386;2023-02-03T06:17:47;5.80;99.90
44223;DHT22;29895;48.804;9.386;2023-02-03T06:20:15;5.80;99.90
44223;DHT22;29895;48.804;9.386;2023-02-03T06:22:41;5.70;99.90
44223;DHT22;29895;48.804;9.386;2023-02-03T06:25:07;5.80;99.90
44223;DHT22;29895;48.804;9.386;2023-02-03T06:27:33;5.80;99.90
44223;DHT22;29895;48.804;9.386;2023-02-03T06:29:58;5.80;99.90
44223;DHT22;29895;48.804;9.386;2023-02-03T06:32:24;5.80;99.90
44223;DHT22;29895;48.804;9.386;2023-02-03T06:34:50;5.90;99.90
44223;DHT22;29895;48.804;9.386;2023-02-03T06:37:16;5.90;99.90
44223;DHT22;29895;48.804;9.386;2023-02-03T06:39:42;5.90;99.90
44223;DHT22;29895;48.804;9.386;2023-02-03T06:42:08;5.90;99.90
44223;DHT22;29895;48.804;9.386;2023-02-03T06:44:33;5.80;99.90
44223;DHT22;29895;48.804;9.386;2023-02-03T06:46:59;5.80;99.90
44223;DHT22;29895;48.804;9.386;2023-02-03T06:49:26;5.80;99.90
44223;DHT22;29895;48.804;9.386;2023-02-03T06:51:52;5.80;99.90
44223;DHT22;29895;48.804;9.386;2023-02-03T06:54:17;5.70;99.90
44223;DHT22;29895;48.804;9.386;2023-02-03T06:56:43;5.70;99.90
44223;DHT22;29895;48.804;9.386;2023-02-03T06:59:10;5.70;99.90
44223;DHT22;29895;48.804;9.386;2023-02-03T07:01:36;5.70;99.90
44223;DHT22;29895;48.804;9.386;2023-02-03T07:04:03;5.70;99.90
44223;DHT22;29895;48.804;9.386;2023-02-03T07:06:28;5.70;99.90
44223;DHT22;29895;48.804;9.386;2023-02-03T07:08:57;5.60;99.90
44223;DHT22;29895;48.804;9.386;2023-02-03T07:11:24;5.60;99.90
44223;DHT22;29895;48.804;9.386;2023-02-03T07:13:50;5.60;99.90
44223;DHT22;29895;48.804;9.386;2023-02-03T07:16:16;5.60;99.90
44223;DHT22;29895;48.804;9.386;2023-02-03T07:18:42;5.60;99.90
44223;DHT22;29895;48.804;9.386;2023-02-03T07:21:08;5.70;99.90
44223;DHT22;29895;48.804;9.386;2023-02-03T07:23:33;5.70;99.90
44223;DHT22;29895;48.804;9.386;2023-02-03T07:26:00;5.70;99.90
44223;DHT22;29895;48.804;9.386;2023-02-03T07:28:27;5.70;99.90
44223;DHT22;29895;48.804;9.386;2023-02-03T07:30:53;5.70;99.90
44223;DHT22;29895;48.804;9.386;2023-02-03T07:33:18;5.70;99.90
44223;DHT22;29895;48.804;9.386;2023-02-03T07:35:53;5.70;99.90
44223;DHT22;29895;48.804;9.386;2023-02-03T07:38:20;5.70;99.90
44223;DHT22;29895;48.804;9.386;2023-02-03T07:40:46;5.80;99.90
44223;DHT22;29895;48.804;9.386;2023-02-03T07:43:12;5.80;99.90
44223;DHT22;29895;48.804;9.386;2023-02-03T07:45:37;5.70;99.90
44223;DHT22;29895;48.804;9.386;2023-02-03T07:48:03;5.80;99.90
44223;DHT22;29895;48.804;9.386;2023-02-03T07:50:29;5.70;99.90
44223;DHT22;29895;48.804;9.386;2023-02-03T07:52:54;5.80;99.90
44223;DHT22;29895;48.804;9.386;2023-02-03T07:55:21;5.70;99.90
44223;DHT22;29895;48.804;9.386;2023-02-03T07:57:47;5.70;99.90
44223;DHT22;29895;48.804;9.386;2023-02-03T08:00:14;5.70;99.90
44223;DHT22;29895;48.804;9.386;2023-02-03T08:02:43;5.80;99.90
44223;DHT22;29895;48.804;9.386;2023-02-03T08:05:10;5.70;99.90
44223;DHT22;29895;48.804;9.386;2023-02-03T08:07:35;5.70;99.90
44223;DHT22;29895;48.804;9.386;2023-02-03T08:10:02;5.70;99.90
44223;DHT22;29895;48.804;9.386;2023-02-03T08:12:28;5.70;99.90
44223;DHT22;29895;48.804;9.386;2023-02-03T08:14:55;5.70;99.90
44223;DHT22;29895;48.804;9.386;2023-02-03T08:17:20;5.80;99.90
44223;DHT22;29895;48.804;9.386;2023-02-03T08:19:46;5.90;99.90
44223;DHT22;29895;48.804;9.386;2023-02-03T08:22:12;6.00;99.90
44223;DHT22;29895;48.804;9.386;2023-02-03T08:24:44;6.00;99.90
44223;DHT22;29895;48.804;9.386;2023-02-03T08:27:12;6.00;99.90
44223;DHT22;29895;48.804;9.386;2023-02-03T08:29:38;6.00;99.90
44223;DHT22;29895;48.804;9.386;2023-02-03T08:32:04;6.00;99.90
44223;DHT22;29895;48.804;9.386;2023-02-03T08:34:29;6.10;99.90
44223;DHT22;29895;48.804;9.386;2023-02-03T08:36:55;6.10;99.90
44223;DHT22;29895;48.804;9.386;2023-02-03T08:39:22;6.10;99.90
44223;DHT22;29895;48.804;9.386;2023-02-03T08:41:47;6.10;99.90
44223;DHT22;29895;48.804;9.386;2023-02-03T08:44:13;6.10;99.90
44223;DHT22;29895;48.804;9.386;2023-02-03T08:46:39;6.10;99.90
44223;DHT22;29895;48.804;9.386;2023-02-03T08:49:09;6.10;99.90
44223;DHT22;29895;48.804;9.386;2023-02-03T08:51:35;6.00;99.90
44223;DHT22;29895;48.804;9.386;2023-02-03T08:54:01;6.10;99.90
44223;DHT22;29895;48.804;9.386;2023-02-03T08:56:27;6.10;99.90
44223;DHT22;29895;48.804;9.386;2023-02-03T08:58:53;6.10;99.90
44223;DHT22;29895;48.804;9.386;2023-02-03T09:01:19;6.10;99.90
44223;DHT22;29895;48.804;9.386;2023-02-03T09:03:45;6.10;99.90
44223;DHT22;29895;48.804;9.386;2023-02-03T09:06:11;6.20;99.90
44223;DHT22;29895;48.804;9.386;2023-02-03T09:08:41;6.20;99.90
44223;DHT22;29895;48.804;9.386;2023-02-03T09:11:14;6.30;99.90
44223;DHT22;29895;48.804;9.386;2023-02-03T09:13:40;6.30;99.90
44223;DHT22;29895;48.804;9.386;2023-02-03T09:16:14;6.30;99.90
44223;DHT22;29895;48.804;9.386;2023-02-03T09:18:42;6.30;99.90
44223;DHT22;29895;48.804;9.386;2023-02-03T09:21:10;6.30;99.90
44223;DHT22;29895;48.804;9.386;2023-02-03T09:23:36;6.50;99.90
44223;DHT22;29895;48.804;9.386;2023-02-03T09:26:06;6.50;99.90
44223;DHT22;29895;48.804;9.386;2023-02-03T09:28:32;6.60;99.90
44223;DHT22;29895;48.804;9.386;2023-02-03T09:31:05;6.80;99.90
44223;DHT22;29895;48.804;9.386;2023-02-03T09:33:31;6.90;99.90
44223;DHT22;29895;48.804;9.386;2023-02-03T09:35:57;7.00;99.90
44223;DHT22;29895;48.804;9.386;2023-02-03T09:38:24;7.00;99.90
44223;DHT22;29895;48.804;9.386;2023-02-03T09:40:53;7.10;99.90
44223;DHT22;29895;48.804;9.386;2023-02-03T09:46:06;7.20;99.90
44223;DHT22;29895;48.804;9.386;2023-02-03T09:48:40;7.30;99.90
44223;DHT22;29895;48.804;9.386;2023-02-03T09:51:17;7.40;99.90
44223;DHT22;29895;48.804;9.386;2023-02-03T09:53:48;7.80;99.90
44223;DHT22;29895;48.804;9.386;2023-02-03T09:56:31;8.20;99.90
44223;DHT22;29895;48.804;9.386;2023-02-03T09:58:58;8.40;99.90
44223;DHT22;29895;48.804;9.386;2023-02-03T10:01:45;8.50;99.90
44223;DHT22;29895;48.804;9.386;2023-02-03T10:04:21;8.60;99.90
44223;DHT22;29895;48.804;9.386;2023-02-03T10:18:27;9.10;99.90
44223;DHT22;29895;48.804;9.386;2023-02-03T10:20:59;9.10;99.90
44223;DHT22;29895;48.804;9.386;2023-02-03T10:23:34;9.20;99.90
44223;DHT22;29895;48.804;9.386;2023-02-03T10:26:04;9.30;99.90
44223;DHT22;29895;48.804;9.386;2023-02-03T10:28:47;9.30;99.90
44223;DHT22;29895;48.804;9.386;2023-02-03T10:31:23;9.20;99.90
44223;DHT22;29895;48.804;9.386;2023-02-03T10:34:00;9.00;99.90
44223;DHT22;29895;48.804;9.386;2023-02-03T10:36:57;8.80;99.90
44223;DHT22;29895;48.804;9.386;2023-02-03T10:39:49;8.90;99.90
44223;DHT22;29895;48.804;9.386;2023-02-03T10:42:15;8.80;99.90
44223;DHT22;29895;48.804;9.386;2023-02-03T10:44:52;8.70;99.90
44223;DHT22;29895;48.804;9.386;2023-02-03T10:47:26;8.60;99.90
44223;DHT22;29895;48.804;9.386;2023-02-03T10:49:55;8.50;99.90
44223;DHT22;29895;48.804;9.386;2023-02-03T10:52:32;8.40;99.90
44223;DHT22;29895;48.804;9.386;2023-02-03T10:55:07;8.40;99.90
44223;DHT22;29895;48.804;9.386;2023-02-03T10:57:52;8.60;99.90
44223;DHT22;29895;48.804;9.386;2023-02-03T11:03:07;8.80;99.90
44223;DHT22;29895;48.804;9.386;2023-02-03T11:05:33;8.80;99.90
44223;DHT22;29895;48.804;9.386;2023-02-03T11:07:59;8.80;99.90
44223;DHT22;29895;48.804;9.386;2023-02-03T11:10:33;8.70;99.90
44223;DHT22;29895;48.804;9.386;2023-02-03T11:13:24;8.70;99.90
44223;DHT22;29895;48.804;9.386;2023-02-03T11:18:26;8.80;99.90
44223;DHT22;29895;48.804;9.386;2023-02-03T11:20:58;8.70;99.90
44223;DHT22;29895;48.804;9.386;2023-02-03T11:23:24;8.70;99.90
44223;DHT22;29895;48.804;9.386;2023-02-03T11:25:50;8.70;99.90
44223;DHT22;29895;48.804;9.386;2023-02-03T11:28:18;8.60;99.90
44223;DHT22;29895;48.804;9.386;2023-02-03T11:30:54;8.50;99.90
44223;DHT22;29895;48.804;9.386;2023-02-03T11:33:24;8.40;99.90
44223;DHT22;29895;48.804;9.386;2023-02-03T11:35:58;8.50;99.90
44223;DHT22;29895;48.804;9.386;2023-02-03T11:38:32;8.40;99.90
44223;DHT22;29895;48.804;9.386;2023-02-03T11:41:01;8.50;99.90
44223;DHT22;29895;48.804;9.386;2023-02-03T11:43:28;8.50;99.90
44223;DHT22;29895;48.804;9.386;2023-02-03T11:45:59;8.60;99.90
44223;DHT22;29895;48.804;9.386;2023-02-03T11:48:31;8.50;99.90
44223;DHT22;29895;48.804;9.386;2023-02-03T11:57:20;8.60;99.90
44223;DHT22;29895;48.804;9.386;2023-02-03T12:00:29;8.60;99.90
44223;DHT22;29895;48.804;9.386;2023-02-03T12:05:57;8.60;99.90
44223;DHT22;29895;48.804;9.386;2023-02-03T12:23:11;8.50;99.90
44223;DHT22;29895;48.804;9.386;2023-02-03T12:34:27;8.60;99.90
44223;DHT22;29895;48.804;9.386;2023-02-03T12:37:06;8.60;99.90
44223;DHT22;29895;48.804;9.386;2023-02-03T12:39:44;8.60;99.90
44223;DHT22;29895;48.804;9.386;2023-02-03T12:42:22;8.60;99.90
44223;DHT22;29895;48.804;9.386;2023-02-03T12:44:54;8.60;99.90
44223;DHT22;29895;48.804;9.386;2023-02-03T12:47:41;8.50;99.90
44223;DHT22;29895;48.804;9.386;2023-02-03T12:50:15;8.50;99.90
44223;DHT22;29895;48.804;9.386;2023-02-03T12:53:05;8.50;99.90
44223;DHT22;29895;48.804;9.386;2023-02-03T12:55:43;8.50;99.90
44223;DHT22;29895;48.804;9.386;2023-02-03T12:58:24;8.40;99.90
44223;DHT22;29895;48.804;9.386;2023-02-03T13:01:04;8.40;99.90
44223;DHT22;29895;48.804;9.386;2023-02-03T13:15:16;8.30;99.90
44223;DHT22;29895;48.804;9.386;2023-02-03T13:18:07;8.40;99.90
44223;DHT22;29895;48.804;9.386;2023-02-03T13:20:35;8.40;99.90
44223;DHT22;29895;48.804;9.386;2023-02-03T13:23:07;8.50;99.90
44223;DHT22;29895;48.804;9.386;2023-02-03T13:32:09;8.50;99.90
44223;DHT22;29895;48.804;9.386;2023-02-03T13:34:43;8.50;99.90
44223;DHT22;29895;48.804;9.386;2023-02-03T13:40:14;8.60;99.90
44223;DHT22;29895;48.804;9.386;2023-02-03T13:43:03;8.60;99.90
44223;DHT22;29895;48.804;9.386;2023-02-03T13:45:40;8.50;99.90
44223;DHT22;29895;48.804;9.386;2023-02-03T13:50:38;8.60;99.90
44223;DHT22;29895;48.804;9.386;2023-02-03T13:53:05;8.50;99.90
44223;DHT22;29895;48.804;9.386;2023-02-03T13:55:38;8.60;99.90
44223;DHT22;29895;48.804;9.386;2023-02-03T13:58:17;8.40;99.90
44223;DHT22;29895;48.804;9.386;2023-02-03T14:05:58;8.50;99.90
44223;DHT22;29895;48.804;9.386;2023-02-03T14:16:49;8.50;99.90
44223;DHT22;29895;48.804;9.386;2023-02-03T14:22:05;8.60;99.90
44223;DHT22;29895;48.804;9.386;2023-02-03T14:24:43;8.60;99.90
44223;DHT22;29895;48.804;9.386;2023-02-03T14:27:22;8.60;99.90
44223;DHT22;29895;48.804;9.386;2023-02-03T14:33:02;8.60;99.90
44223;DHT22;29895;48.804;9.386;2023-02-03T14:35:36;8.70;99.90
44223;DHT22;29895;48.804;9.386;2023-02-03T14:38:08;8.60;99.90
44223;DHT22;29895;48.804;9.386;2023-02-03T14:40:40;8.70;99.90
44223;DHT22;29895;48.804;9.386;2023-02-03T14:43:33;8.60;99.90
44223;DHT22;29895;48.804;9.386;2023-02-03T15:05:40;8.60;99.90
44223;DHT22;29895;48.804;9.386;2023-02-03T15:10:57;8.60;99.90
44223;DHT22;29895;48.804;9.386;2023-02-03T15:13:28;8.60;99.90
44223;DHT22;29895;48.804;9.386;2023-02-03T15:15:59;8.60;99.90
44223;DHT22;29895;48.804;9.386;2023-02-03T15:18:34;8.60;99.90
44223;DHT22;29895;48.804;9.386;2023-02-03T15:21:04;8.60;99.90
44223;DHT22;29895;48.804;9.386;2023-02-03T15:23:38;8.60;99.90
44223;DHT22;29895;48.804;9.386;2023-02-03T15:26:14;8.60;99.90
44223;DHT22;29895;48.804;9.386;2023-02-03T15:28:41;8.60;99.90
44223;DHT22;29895;48.804;9.386;2023-02-03T15:31:18;8.50;99.90
44223;DHT22;29895;48.804;9.386;2023-02-03T15:33:47;8.50;99.90
44223;DHT22;29895;48.804;9.386;2023-02-03T15:36:20;8.50;99.90
44223;DHT22;29895;48.804;9.386;2023-02-03T15:41:53;8.40;99.90
44223;DHT22;29895;48.804;9.386;2023-02-03T15:44:30;8.40;99.90
44223;DHT22;29895;48.804;9.386;2023-02-03T15:46:59;8.40;99.90
44223;DHT22;29895;48.804;9.386;2023-02-03T15:49:34;8.40;99.90
44223;DHT22;29895;48.804;9.386;2023-02-03T15:52:16;8.40;99.90
44223;DHT22;29895;48.804;9.386;2023-02-03T15:54:48;8.30;99.90
44223;DHT22;29895;48.804;9.386;2023-02-03T15:57:28;8.30;99.90
44223;DHT22;29895;48.804;9.386;2023-02-03T15:59:58;8.30;99.90
44223;DHT22;29895;48.804;9.386;2023-02-03T16:02:32;8.20;99.90
44223;DHT22;29895;48.804;9.386;2023-02-03T16:05:22;8.20;99.90
44223;DHT22;29895;48.804;9.386;2023-02-03T16:07:50;8.10;99.90
44223;DHT22;29895;48.804;9.386;2023-02-03T16:10:32;8.10;99.90
44223;DHT22;29895;48.804;9.386;2023-02-03T16:13:24;8.20;99.90
44223;DHT22;29895;48.804;9.386;2023-02-03T16:16:03;8.20;99.90
44223;DHT22;29895;48.804;9.386;2023-02-03T16:18:31;8.20;99.90
44223;DHT22;29895;48.804;9.386;2023-02-03T16:21:00;8.20;99.90
44223;DHT22;29895;48.804;9.386;2023-02-03T16:23:26;8.10;99.90
44223;DHT22;29895;48.804;9.386;2023-02-03T16:26:15;8.10;99.90
44223;DHT22;29895;48.804;9.386;2023-02-03T16:28:42;8.10;99.90
44223;DHT22;29895;48.804;9.386;2023-02-03T16:31:26;8.20;99.90
44223;DHT22;29895;48.804;9.386;2023-02-03T16:34:18;8.10;99.90
44223;DHT22;29895;48.804;9.386;2023-02-03T16:37:19;8.20;99.90
44223;DHT22;29895;48.804;9.386;2023-02-03T16:40:05;8.10;99.90
44223;DHT22;29895;48.804;9.386;2023-02-03T16:42:50;8.10;99.90
44223;DHT22;29895;48.804;9.386;2023-02-03T16:45:34;8.10;99.90
44223;DHT22;29895;48.804;9.386;2023-02-03T16:48:18;8.10;99.90
44223;DHT22;29895;48.804;9.386;2023-02-03T16:51:20;8.10;99.90
44223;DHT22;29895;48.804;9.386;2023-02-03T16:53:46;8.10;99.90
44223;DHT22;29895;48.804;9.386;2023-02-03T16:56:12;8.00;99.90
44223;DHT22;29895;48.804;9.386;2023-02-03T16:58:39;8.10;99.90
44223;DHT22;29895;48.804;9.386;2023-02-03T17:01:05;8.10;99.90
44223;DHT22;29895;48.804;9.386;2023-02-03T17:03:33;8.10;99.90
44223;DHT22;29895;48.804;9.386;2023-02-03T17:06:09;8.10;99.90
44223;DHT22;29895;48.804;9.386;2023-02-03T17:08:37;8.10;99.90
44223;DHT22;29895;48.804;9.386;2023-02-03T17:11:06;8.10;99.90
44223;DHT22;29895;48.804;9.386;2023-02-03T17:13:31;8.10;99.90
44223;DHT22;29895;48.804;9.386;2023-02-03T17:15:57;8.10;99.90
44223;DHT22;29895;48.804;9.386;2023-02-03T17:18:23;8.10;99.90
44223;DHT22;29895;48.804;9.386;2023-02-03T17:20:49;8.10;99.90
44223;DHT22;29895;48.804;9.386;2023-02-03T17:23:15;8.10;99.90
44223;DHT22;29895;48.804;9.386;2023-02-03T17:25:44;8.20;99.90
44223;DHT22;29895;48.804;9.386;2023-02-03T17:28:10;8.10;99.90
44223;DHT22;29895;48.804;9.386;2023-02-03T17:30:38;8.10;99.90
44223;DHT22;29895;48.804;9.386;2023-02-03T17:33:05;8.10;99.90
44223;DHT22;29895;48.804;9.386;2023-02-03T17:35:41;8.10;99.90
44223;DHT22;29895;48.804;9.386;2023-02-03T17:38:09;8.10;99.90
44223;DHT22;29895;48.804;9.386;2023-02-03T17:40:38;8.10;99.90
44223;DHT22;29895;48.804;9.386;2023-02-03T17:43:05;8.10;99.90
44223;DHT22;29895;48.804;9.386;2023-02-03T17:45:30;8.10;99.90
44223;DHT22;29895;48.804;9.386;2023-02-03T17:47:57;8.10;99.90
44223;DHT22;29895;48.804;9.386;2023-02-03T17:50:25;8.10;99.90
44223;DHT22;29895;48.804;9.386;2023-02-03T17:52:51;8.10;99.90
44223;DHT22;29895;48.804;9.386;2023-02-03T17:55:17;8.10;99.90
44223;DHT22;29895;48.804;9.386;2023-02-03T17:57:43;8.20;99.90
44223;DHT22;29895;48.804;9.386;2023-02-03T18:00:10;8.20;99.90
44223;DHT22;29895;48.804;9.386;2023-02-03T18:02:36;8.20;99.90
44223;DHT22;29895;48.804;9.386;2023-02-03T18:05:01;8.20;99.90
44223;DHT22;29895;48.804;9.386;2023-02-03T18:07:27;8.20;99.90
44223;DHT22;29895;48.804;9.386;2023-02-03T18:09:53;8.20;99.90
44223;DHT22;29895;48.804;9.386;2023-02-03T18:12:19;8.20;99.90
44223;DHT22;29895;48.804;9.386;2023-02-03T18:14:44;8.30;99.90
44223;DHT22;29895;48.804;9.386;2023-02-03T18:17:10;8.30;99.90
44223;DHT22;29895;48.804;9.386;2023-02-03T18:19:36;8.30;99.90
44223;DHT22;29895;48.804;9.386;2023-02-03T18:22:01;8.30;99.90
44223;DHT22;29895;48.804;9.386;2023-02-03T18:24:27;8.30;99.90
44223;DHT22;29895;48.804;9.386;2023-02-03T18:26:54;8.20;99.90
44223;DHT22;29895;48.804;9.386;2023-02-03T18:29:21;8.30;99.90
44223;DHT22;29895;48.804;9.386;2023-02-03T18:31:49;8.30;99.90
44223;DHT22;29895;48.804;9.386;2023-02-03T18:34:15;8.30;99.90